Frank T. Stegbauer — WDE5944 — position and weather

sailwx.info

Track history (hours):
 
Tides and Currents Weather Stations Pressure Air Temp Water Temp Dewpoint Dewpoint Depression Visibility Wind Speed Wind Dir Waves Ship Positions

Frank T. Stegbauer

Owner: SOUTHERN TOWING COMPANY LLC., Memphis, TN. More information available from US FCC via Universal Licensing System and Coast Guard Vessel Documentation Center.

Last reported at 2018-Feb-04 20:00 UTC. Time now 2018-Feb-19 14:34 UTC.
Position N 32°36' W 091°08'.
Warning: this ship's position is 14 days out of date.

Length 35 m; draft 3 m.

Type: Tug. MMSI: 367373640.

Date/timePositionNaut miles runAvg speedWind from/ knotsBaromVisibWave heightAir tempDewpointWater temp
2018-Feb-04 20:00N 32°36' W 091°08'6 4.4
2018-Feb-04 18:45N 32°31' W 091°07'1 5.8
2018-Feb-04 18:30N 32°29' W 091°07'2 4.7
2018-Feb-04 18:00N 32°27' W 091°05'2 4.9
2018-Feb-04 17:30N 32°26' W 091°03'7 3.4
2018-Feb-04 15:30N 32°21' W 090°58'2 4.8
2018-Feb-04 15:00N 32°21' W 090°55'2 4.3
2018-Feb-04 14:30N 32°19' W 090°55'2 4.7
2018-Feb-04 14:00N 32°17' W 090°57'2 4.7
2018-Feb-04 13:30N 32°15' W 090°59'2 4.4
2018-Feb-04 13:00N 32°13' W 090°59'2 4.6
2018-Feb-04 12:30N 32°11' W 090°60'2 4.7
2018-Feb-04 12:00N 32°09' W 091°00'2 4.0
2018-Feb-04 11:29N 32°07' W 091°02'  
2018-Jan-31 11:11N 31°59' W 091°08'211.2
2018-Jan-31 11:00N 31°60' W 091°06'510.4
2018-Jan-31 10:29N 32°05' W 091°05'3 5.7
2018-Jan-31 09:58N 32°08' W 091°04'4 8.4
2018-Jan-31 09:30N 32°10' W 091°00'611.1
2018-Jan-31 09:00N 32°15' W 090°58'611.0
2018-Jan-31 08:30N 32°19' W 090°54'4 8.4
2018-Jan-31 08:00N 32°21' W 090°59'5 9.1
2018-Jan-31 07:30N 32°25' W 091°00'8 9.3
2018-Jan-31 06:41N 32°31' W 091°06'2 9.9
2018-Jan-31 06:29N 32°33' W 091°06'5 9.1
2018-Jan-31 05:56N 32°37' W 091°09'  
Track history (hours):
 
Tides and Currents Weather Stations Pressure Air Temp Water Temp Dewpoint Dewpoint Depression Visibility Wind Speed Wind Dir Waves Ship Positions

Frank T. Stegbauer

Owner: SOUTHERN TOWING COMPANY LLC., Memphis, TN. More information available from US FCC via Universal Licensing System and Coast Guard Vessel Documentation Center.

Last reported at 2018-Feb-04 20:00 UTC. Time now 2018-Feb-19 14:34 UTC.
Position N 32°36' W 091°08'.
Warning: this ship's position is 14 days out of date.

Length 35 m; draft 3 m.

Type: Tug. MMSI: 367373640.

Date/timePositionNaut miles runAvg speedWind from/ knotsBaromVisibWave heightAir tempDewpointWater temp
2018-Feb-04 20:00N 32°36' W 091°08'6 4.4
2018-Feb-04 18:45N 32°31' W 091°07'1 5.8
2018-Feb-04 18:30N 32°29' W 091°07'2 4.7
2018-Feb-04 18:00N 32°27' W 091°05'2 4.9
2018-Feb-04 17:30N 32°26' W 091°03'7 3.4
2018-Feb-04 15:30N 32°21' W 090°58'2 4.8
2018-Feb-04 15:00N 32°21' W 090°55'2 4.3
2018-Feb-04 14:30N 32°19' W 090°55'2 4.7
2018-Feb-04 14:00N 32°17' W 090°57'2 4.7
2018-Feb-04 13:30N 32°15' W 090°59'2 4.4
2018-Feb-04 13:00N 32°13' W 090°59'2 4.6
2018-Feb-04 12:30N 32°11' W 090°60'2 4.7
2018-Feb-04 12:00N 32°09' W 091°00'2 4.0
2018-Feb-04 11:29N 32°07' W 091°02'  
2018-Jan-31 11:11N 31°59' W 091°08'211.2
2018-Jan-31 11:00N 31°60' W 091°06'510.4
2018-Jan-31 10:29N 32°05' W 091°05'3 5.7
2018-Jan-31 09:58N 32°08' W 091°04'4 8.4
2018-Jan-31 09:30N 32°10' W 091°00'611.1
2018-Jan-31 09:00N 32°15' W 090°58'611.0
2018-Jan-31 08:30N 32°19' W 090°54'4 8.4
2018-Jan-31 08:00N 32°21' W 090°59'5 9.1
2018-Jan-31 07:30N 32°25' W 091°00'8 9.3
2018-Jan-31 06:41N 32°31' W 091°06'2 9.9
2018-Jan-31 06:29N 32°33' W 091°06'5 9.1
2018-Jan-31 05:56N 32°37' W 091°09'  

Dump ship's entire track history